sensor_id;sensor_type;location;lat;lon;timestamp;pressure;altitude;pressure_sealevel;temperature;humidity
78488;BME280;67885;49.758;9.582;2023-12-28T00:00:40;99189.78;;;11.10;44.08
78488;BME280;67885;49.758;9.582;2023-12-28T00:03:07;99188.38;;;11.06;44.25
78488;BME280;67885;49.758;9.582;2023-12-28T00:05:35;99172.13;;;11.00;44.34
78488;BME280;67885;49.758;9.582;2023-12-28T00:08:01;99171.44;;;10.86;45.99
78488;BME280;67885;49.758;9.582;2023-12-28T00:10:28;99124.84;;;10.51;45.46
78488;BME280;67885;49.758;9.582;2023-12-28T00:12:54;99173.66;;;10.70;44.94
78488;BME280;67885;49.758;9.582;2023-12-28T00:15:22;99190.75;;;10.77;44.87
78488;BME280;67885;49.758;9.582;2023-12-28T00:17:48;99173.06;;;10.77;44.47
78488;BME280;67885;49.758;9.582;2023-12-28T00:20:15;99163.69;;;10.73;43.65
78488;BME280;67885;49.758;9.582;2023-12-28T00:22:43;99173.19;;;10.76;44.17
78488;BME280;67885;49.758;9.582;2023-12-28T00:25:10;99185.09;;;10.82;44.18
78488;BME280;67885;49.758;9.582;2023-12-28T00:27:36;99178.69;;;10.84;44.11
78488;BME280;67885;49.758;9.582;2023-12-28T00:30:05;99156.81;;;10.71;44.25
78488;BME280;67885;49.758;9.582;2023-12-28T00:32:31;99164.25;;;10.77;43.82
78488;BME280;67885;49.758;9.582;2023-12-28T00:34:58;99181.09;;;10.87;44.51
78488;BME280;67885;49.758;9.582;2023-12-28T00:37:24;99144.53;;;10.70;43.82
78488;BME280;67885;49.758;9.582;2023-12-28T00:39:53;99179.59;;;10.94;43.49
78488;BME280;67885;49.758;9.582;2023-12-28T00:42:19;99183.94;;;10.95;44.14
78488;BME280;67885;49.758;9.582;2023-12-28T00:44:46;99190.69;;;11.00;42.89
78488;BME280;67885;49.758;9.582;2023-12-28T00:47:12;99162.31;;;10.79;43.58
78488;BME280;67885;49.758;9.582;2023-12-28T00:49:39;99196.19;;;11.08;42.63
78488;BME280;67885;49.758;9.582;2023-12-28T00:52:06;99187.91;;;11.01;42.87
78488;BME280;67885;49.758;9.582;2023-12-28T00:54:32;99190.06;;;11.07;42.85
78488;BME280;67885;49.758;9.582;2023-12-28T00:57:00;99210.16;;;11.10;43.22
78488;BME280;67885;49.758;9.582;2023-12-28T00:59:27;99208.69;;;11.17;42.68
78488;BME280;67885;49.758;9.582;2023-12-28T01:01:53;99211.34;;;11.17;43.46
78488;BME280;67885;49.758;9.582;2023-12-28T01:04:20;99206.03;;;11.17;43.00
78488;BME280;67885;49.758;9.582;2023-12-28T01:06:48;99164.56;;;10.95;43.87
78488;BME280;67885;49.758;9.582;2023-12-28T01:09:15;99197.16;;;11.07;42.92
78488;BME280;67885;49.758;9.582;2023-12-28T01:11:41;99212.16;;;11.18;42.66
78488;BME280;67885;49.758;9.582;2023-12-28T01:14:09;99199.44;;;11.11;42.51
78488;BME280;67885;49.758;9.582;2023-12-28T01:16:36;99205.78;;;11.20;42.44
78488;BME280;67885;49.758;9.582;2023-12-28T01:19:04;99202.16;;;11.21;43.24
78488;BME280;67885;49.758;9.582;2023-12-28T01:21:31;99196.38;;;11.16;42.74
78488;BME280;67885;49.758;9.582;2023-12-28T01:23:58;99196.25;;;11.18;43.39
78488;BME280;67885;49.758;9.582;2023-12-28T01:26:24;99190.97;;;11.18;42.69
78488;BME280;67885;49.758;9.582;2023-12-28T01:28:51;99181.97;;;11.09;42.85
78488;BME280;67885;49.758;9.582;2023-12-28T01:31:19;99183.13;;;11.16;42.29
78488;BME280;67885;49.758;9.582;2023-12-28T01:33:45;99193.25;;;11.22;42.36
78488;BME280;67885;49.758;9.582;2023-12-28T01:36:16;99186.59;;;11.28;42.38
78488;BME280;67885;49.758;9.582;2023-12-28T01:38:43;99195.13;;;11.32;42.17
78488;BME280;67885;49.758;9.582;2023-12-28T01:41:10;99196.69;;;11.34;41.67
78488;BME280;67885;49.758;9.582;2023-12-28T01:43:38;99152.50;;;11.02;41.79
78488;BME280;67885;49.758;9.582;2023-12-28T01:46:06;99090.88;;;10.68;42.06
78488;BME280;67885;49.758;9.582;2023-12-28T01:48:34;99210.53;;;11.38;41.54
78488;BME280;67885;49.758;9.582;2023-12-28T01:51:02;99167.50;;;11.13;42.13
78488;BME280;67885;49.758;9.582;2023-12-28T01:53:29;99203.28;;;11.40;42.21
78488;BME280;67885;49.758;9.582;2023-12-28T01:55:57;99212.94;;;11.41;41.10
78488;BME280;67885;49.758;9.582;2023-12-28T01:58:28;99199.44;;;11.33;42.01
78488;BME280;67885;49.758;9.582;2023-12-28T02:00:56;99191.06;;;11.27;41.11
78488;BME280;67885;49.758;9.582;2023-12-28T02:03:23;99211.81;;;11.43;41.61
78488;BME280;67885;49.758;9.582;2023-12-28T02:05:52;99212.53;;;11.45;41.74
78488;BME280;67885;49.758;9.582;2023-12-28T02:08:18;99193.66;;;11.39;41.41
78488;BME280;67885;49.758;9.582;2023-12-28T02:10:45;99205.41;;;11.46;41.68
78488;BME280;67885;49.758;9.582;2023-12-28T02:13:13;99183.03;;;11.39;40.84
78488;BME280;67885;49.758;9.582;2023-12-28T02:15:40;99195.66;;;11.46;40.78
78488;BME280;67885;49.758;9.582;2023-12-28T02:18:12;99197.78;;;11.53;41.41
78488;BME280;67885;49.758;9.582;2023-12-28T02:20:39;99182.53;;;11.45;41.21
78488;BME280;67885;49.758;9.582;2023-12-28T02:23:07;99206.19;;;11.58;41.04
78488;BME280;67885;49.758;9.582;2023-12-28T02:25:36;99210.91;;;11.54;40.52
78488;BME280;67885;49.758;9.582;2023-12-28T02:28:03;99219.66;;;11.66;41.28
78488;BME280;67885;49.758;9.582;2023-12-28T02:30:31;99220.13;;;11.71;40.30
78488;BME280;67885;49.758;9.582;2023-12-28T02:33:07;99247.75;;;11.69;40.04
78488;BME280;67885;49.758;9.582;2023-12-28T02:35:41;99230.78;;;11.81;39.79
78488;BME280;67885;49.758;9.582;2023-12-28T02:38:10;99214.88;;;11.81;40.68
78488;BME280;67885;49.758;9.582;2023-12-28T02:40:41;99226.25;;;11.93;40.56
78488;BME280;67885;49.758;9.582;2023-12-28T02:43:10;99213.25;;;11.90;40.93
78488;BME280;67885;49.758;9.582;2023-12-28T02:45:38;99221.88;;;12.03;40.60
78488;BME280;67885;49.758;9.582;2023-12-28T02:48:05;99218.53;;;12.11;40.69
78488;BME280;67885;49.758;9.582;2023-12-28T02:50:33;99215.38;;;12.17;39.96
78488;BME280;67885;49.758;9.582;2023-12-28T02:53:00;99231.63;;;12.24;39.60
78488;BME280;67885;49.758;9.582;2023-12-28T02:55:27;99180.38;;;12.02;39.73
78488;BME280;67885;49.758;9.582;2023-12-28T02:57:57;99183.41;;;11.97;39.94
78488;BME280;67885;49.758;9.582;2023-12-28T03:00:25;99222.03;;;12.42;39.36
78488;BME280;67885;49.758;9.582;2023-12-28T03:02:52;99170.56;;;12.24;38.42
78488;BME280;67885;49.758;9.582;2023-12-28T03:05:18;99208.63;;;12.44;39.41
78488;BME280;67885;49.758;9.582;2023-12-28T03:07:45;99197.06;;;12.55;40.02
78488;BME280;67885;49.758;9.582;2023-12-28T03:10:12;99157.16;;;12.35;39.21
78488;BME280;67885;49.758;9.582;2023-12-28T03:12:39;99194.69;;;12.61;39.65
78488;BME280;67885;49.758;9.582;2023-12-28T03:15:07;99194.56;;;12.63;39.33
78488;BME280;67885;49.758;9.582;2023-12-28T03:17:34;99195.41;;;12.63;40.30
78488;BME280;67885;49.758;9.582;2023-12-28T03:20:02;99195.13;;;12.67;40.25
78488;BME280;67885;49.758;9.582;2023-12-28T03:22:29;99194.88;;;12.70;40.34
78488;BME280;67885;49.758;9.582;2023-12-28T03:24:55;99195.56;;;12.72;41.53
78488;BME280;67885;49.758;9.582;2023-12-28T03:27:22;99205.22;;;12.73;41.50
78488;BME280;67885;49.758;9.582;2023-12-28T03:29:49;99215.69;;;12.74;42.55
78488;BME280;67885;49.758;9.582;2023-12-28T03:32:17;99202.53;;;12.63;41.91
78488;BME280;67885;49.758;9.582;2023-12-28T03:34:43;99231.66;;;12.74;42.04
78488;BME280;67885;49.758;9.582;2023-12-28T03:37:10;99225.88;;;12.69;42.36
78488;BME280;67885;49.758;9.582;2023-12-28T03:39:37;99222.53;;;12.67;41.60
78488;BME280;67885;49.758;9.582;2023-12-28T03:42:04;99230.25;;;12.80;42.79
78488;BME280;67885;49.758;9.582;2023-12-28T03:44:30;99224.78;;;12.81;42.76
78488;BME280;67885;49.758;9.582;2023-12-28T03:46:57;99227.06;;;12.86;42.28
78488;BME280;67885;49.758;9.582;2023-12-28T03:49:26;99223.28;;;12.89;42.05
78488;BME280;67885;49.758;9.582;2023-12-28T03:51:53;99222.88;;;12.93;41.63
78488;BME280;67885;49.758;9.582;2023-12-28T03:54:19;99218.13;;;12.97;42.63
78488;BME280;67885;49.758;9.582;2023-12-28T03:56:47;99220.06;;;13.05;42.22
78488;BME280;67885;49.758;9.582;2023-12-28T03:59:13;99231.13;;;13.10;42.79
78488;BME280;67885;49.758;9.582;2023-12-28T04:01:41;99220.06;;;13.05;42.47
78488;BME280;67885;49.758;9.582;2023-12-28T04:04:08;99223.59;;;13.15;42.77
78488;BME280;67885;49.758;9.582;2023-12-28T04:06:36;99214.34;;;13.09;42.18
78488;BME280;67885;49.758;9.582;2023-12-28T04:09:03;99222.47;;;13.18;43.22
78488;BME280;67885;49.758;9.582;2023-12-28T04:11:30;99222.34;;;13.19;42.61
78488;BME280;67885;49.758;9.582;2023-12-28T04:13:56;99213.09;;;13.13;42.73
78488;BME280;67885;49.758;9.582;2023-12-28T04:16:22;99228.22;;;13.23;42.44
78488;BME280;67885;49.758;9.582;2023-12-28T04:18:48;99221.91;;;13.24;42.90
78488;BME280;67885;49.758;9.582;2023-12-28T04:21:15;99222.75;;;13.24;42.50
78488;BME280;67885;49.758;9.582;2023-12-28T04:23:44;99231.56;;;13.25;42.61
78488;BME280;67885;49.758;9.582;2023-12-28T04:26:11;99227.13;;;13.25;43.35
78488;BME280;67885;49.758;9.582;2023-12-28T04:28:37;99231.44;;;13.26;43.25
78488;BME280;67885;49.758;9.582;2023-12-28T04:31:05;99163.00;;;12.89;43.66
78488;BME280;67885;49.758;9.582;2023-12-28T04:33:32;99230.75;;;13.34;43.15
78488;BME280;67885;49.758;9.582;2023-12-28T04:36:01;99237.75;;;13.35;43.61
78488;BME280;67885;49.758;9.582;2023-12-28T04:38:29;99235.81;;;13.37;43.50
78488;BME280;67885;49.758;9.582;2023-12-28T04:40:58;99240.88;;;13.40;43.43
78488;BME280;67885;49.758;9.582;2023-12-28T04:43:24;99241.69;;;13.41;43.04
78488;BME280;67885;49.758;9.582;2023-12-28T04:45:51;99246.19;;;13.40;43.03
78488;BME280;67885;49.758;9.582;2023-12-28T04:48:18;99223.16;;;13.20;44.21
78488;BME280;67885;49.758;9.582;2023-12-28T04:50:46;99263.53;;;13.44;43.13
78488;BME280;67885;49.758;9.582;2023-12-28T04:53:14;99247.44;;;13.46;43.73
78488;BME280;67885;49.758;9.582;2023-12-28T04:55:40;99248.41;;;13.45;44.04
78488;BME280;67885;49.758;9.582;2023-12-28T04:58:10;99258.47;;;13.41;44.48
78488;BME280;67885;49.758;9.582;2023-12-28T05:00:36;99250.94;;;13.37;44.82
78488;BME280;67885;49.758;9.582;2023-12-28T05:03:03;99251.31;;;13.32;45.00
78488;BME280;67885;49.758;9.582;2023-12-28T05:05:30;99246.69;;;13.24;44.67
78488;BME280;67885;49.758;9.582;2023-12-28T05:07:57;99263.78;;;13.31;44.97
78488;BME280;67885;49.758;9.582;2023-12-28T05:10:23;99255.50;;;13.35;45.48
78488;BME280;67885;49.758;9.582;2023-12-28T05:12:50;99262.53;;;13.45;45.06
78488;BME280;67885;49.758;9.582;2023-12-28T05:15:18;99259.63;;;13.48;44.81
78488;BME280;67885;49.758;9.582;2023-12-28T05:17:45;99241.69;;;13.41;45.17
78488;BME280;67885;49.758;9.582;2023-12-28T05:20:11;99283.72;;;13.57;44.23
78488;BME280;67885;49.758;9.582;2023-12-28T05:22:38;99291.41;;;13.60;45.05
78488;BME280;67885;49.758;9.582;2023-12-28T05:25:05;99281.44;;;13.52;45.03
78488;BME280;67885;49.758;9.582;2023-12-28T05:27:32;99284.66;;;13.65;44.50
78488;BME280;67885;49.758;9.582;2023-12-28T05:29:59;99294.50;;;13.65;45.81
78488;BME280;67885;49.758;9.582;2023-12-28T05:32:27;99297.44;;;13.62;46.37
78488;BME280;67885;49.758;9.582;2023-12-28T05:34:53;99304.72;;;13.60;47.32
78488;BME280;67885;49.758;9.582;2023-12-28T05:37:20;99316.47;;;13.57;47.54
78488;BME280;67885;49.758;9.582;2023-12-28T05:39:46;99312.13;;;13.56;48.13
78488;BME280;67885;49.758;9.582;2023-12-28T05:42:13;99311.72;;;13.71;49.56
78488;BME280;67885;49.758;9.582;2023-12-28T05:44:40;99322.06;;;13.83;50.51
78488;BME280;67885;49.758;9.582;2023-12-28T05:47:06;99259.63;;;13.48;49.60
78488;BME280;67885;49.758;9.582;2023-12-28T05:49:34;99299.81;;;13.75;49.71
78488;BME280;67885;49.758;9.582;2023-12-28T05:52:01;99311.44;;;13.93;49.93
78488;BME280;67885;49.758;9.582;2023-12-28T05:54:28;99329.06;;;13.94;50.00
78488;BME280;67885;49.758;9.582;2023-12-28T05:56:54;99312.09;;;13.95;50.29
78488;BME280;67885;49.758;9.582;2023-12-28T05:59:21;99275.00;;;13.64;50.83
78488;BME280;67885;49.758;9.582;2023-12-28T06:01:48;99320.81;;;13.78;50.98
78488;BME280;67885;49.758;9.582;2023-12-28T06:04:14;99328.94;;;13.66;51.65
78488;BME280;67885;49.758;9.582;2023-12-28T06:06:42;99329.09;;;13.55;51.69
78488;BME280;67885;49.758;9.582;2023-12-28T06:09:09;99332.72;;;13.44;52.44
78488;BME280;67885;49.758;9.582;2023-12-28T06:11:35;99328.19;;;13.35;52.74
78488;BME280;67885;49.758;9.582;2023-12-28T06:14:02;99331.53;;;13.27;53.90
78488;BME280;67885;49.758;9.582;2023-12-28T06:16:29;99332.63;;;13.25;53.75
78488;BME280;67885;49.758;9.582;2023-12-28T06:18:58;99332.09;;;13.21;54.72
78488;BME280;67885;49.758;9.582;2023-12-28T06:21:25;99334.16;;;13.18;55.00
78488;BME280;67885;49.758;9.582;2023-12-28T06:23:53;99309.34;;;13.07;55.03
78488;BME280;67885;49.758;9.582;2023-12-28T06:26:20;99314.16;;;13.13;55.63
78488;BME280;67885;49.758;9.582;2023-12-28T06:28:47;99315.13;;;13.12;55.53
78488;BME280;67885;49.758;9.582;2023-12-28T06:31:14;99324.19;;;13.10;56.72
78488;BME280;67885;49.758;9.582;2023-12-28T06:33:40;99316.38;;;13.08;56.76
78488;BME280;67885;49.758;9.582;2023-12-28T06:36:08;99333.16;;;13.09;56.22
78488;BME280;67885;49.758;9.582;2023-12-28T06:38:34;99321.38;;;13.02;56.63
78488;BME280;67885;49.758;9.582;2023-12-28T06:41:02;99338.22;;;13.12;56.47
78488;BME280;67885;49.758;9.582;2023-12-28T06:43:29;99334.69;;;13.11;57.06
78488;BME280;67885;49.758;9.582;2023-12-28T06:45:55;99313.03;;;13.06;56.51
78488;BME280;67885;49.758;9.582;2023-12-28T06:48:22;99319.84;;;13.09;57.11
78488;BME280;67885;49.758;9.582;2023-12-28T06:50:50;99329.97;;;13.15;56.67
78488;BME280;67885;49.758;9.582;2023-12-28T06:53:16;99327.44;;;13.13;57.30
78488;BME280;67885;49.758;9.582;2023-12-28T06:55:43;99313.28;;;13.13;57.43
78488;BME280;67885;49.758;9.582;2023-12-28T06:58:11;99318.59;;;13.13;57.23
78488;BME280;67885;49.758;9.582;2023-12-28T07:00:37;99303.78;;;13.10;57.74
78488;BME280;67885;49.758;9.582;2023-12-28T07:03:04;99308.81;;;13.13;58.18
78488;BME280;67885;49.758;9.582;2023-12-28T07:05:30;99310.38;;;13.16;56.97
78488;BME280;67885;49.758;9.582;2023-12-28T07:07:57;99316.38;;;13.18;57.14
78488;BME280;67885;49.758;9.582;2023-12-28T07:10:24;99272.84;;;12.99;57.77
78488;BME280;67885;49.758;9.582;2023-12-28T07:12:50;99306.31;;;13.22;57.27
78488;BME280;67885;49.758;9.582;2023-12-28T07:15:18;99258.84;;;12.97;57.43
78488;BME280;67885;49.758;9.582;2023-12-28T07:17:45;99293.03;;;13.22;57.36
78488;BME280;67885;49.758;9.582;2023-12-28T07:20:11;99299.19;;;13.32;57.30
78488;BME280;67885;49.758;9.582;2023-12-28T07:22:39;99296.66;;;13.30;57.05
78488;BME280;67885;49.758;9.582;2023-12-28T07:25:06;99291.91;;;13.24;56.81
78488;BME280;67885;49.758;9.582;2023-12-28T07:27:33;99294.41;;;13.16;57.27
78488;BME280;67885;49.758;9.582;2023-12-28T07:30:00;99312.31;;;13.24;57.00
78488;BME280;67885;49.758;9.582;2023-12-28T07:32:29;99322.56;;;13.19;57.53
78488;BME280;67885;49.758;9.582;2023-12-28T07:34:56;99327.03;;;13.18;57.66
78488;BME280;67885;49.758;9.582;2023-12-28T07:37:24;99329.81;;;13.16;57.12
78488;BME280;67885;49.758;9.582;2023-12-28T07:39:51;99309.22;;;13.09;56.87
78488;BME280;67885;49.758;9.582;2023-12-28T07:42:18;99314.53;;;13.09;57.57
78488;BME280;67885;49.758;9.582;2023-12-28T07:44:45;99325.91;;;13.11;57.46
78488;BME280;67885;49.758;9.582;2023-12-28T07:47:11;99339.88;;;13.13;57.58
78488;BME280;67885;49.758;9.582;2023-12-28T07:49:41;99351.50;;;13.12;57.46
78488;BME280;67885;49.758;9.582;2023-12-28T07:52:07;99342.38;;;13.05;57.94
78488;BME280;67885;49.758;9.582;2023-12-28T07:54:34;99183.03;;;12.02;57.74
78488;BME280;67885;49.758;9.582;2023-12-28T07:57:01;99349.38;;;13.06;58.04
78488;BME280;67885;49.758;9.582;2023-12-28T07:59:27;99354.56;;;13.07;57.67
78488;BME280;67885;49.758;9.582;2023-12-28T08:01:54;99360.59;;;13.09;57.40
78488;BME280;67885;49.758;9.582;2023-12-28T08:04:21;99310.16;;;12.57;57.45
78488;BME280;67885;49.758;9.582;2023-12-28T08:06:49;99350.94;;;13.08;57.50
78488;BME280;67885;49.758;9.582;2023-12-28T08:09:15;99348.56;;;13.05;57.91
78488;BME280;67885;49.758;9.582;2023-12-28T08:11:42;99354.00;;;13.04;58.05
78488;BME280;67885;49.758;9.582;2023-12-28T08:14:09;99349.66;;;13.03;58.23
78488;BME280;67885;49.758;9.582;2023-12-28T08:16:35;99358.31;;;13.05;58.81
78488;BME280;67885;49.758;9.582;2023-12-28T08:19:02;99386.59;;;13.06;58.25
78488;BME280;67885;49.758;9.582;2023-12-28T08:21:28;99304.94;;;12.77;58.19
78488;BME280;67885;49.758;9.582;2023-12-28T08:23:56;99352.75;;;13.08;57.84
78488;BME280;67885;49.758;9.582;2023-12-28T08:26:23;99357.94;;;13.09;57.92
78488;BME280;67885;49.758;9.582;2023-12-28T08:28:50;99344.34;;;13.03;57.97
78488;BME280;67885;49.758;9.582;2023-12-28T08:31:17;99343.25;;;13.05;58.40
78488;BME280;67885;49.758;9.582;2023-12-28T08:33:44;99337.19;;;13.03;58.60
78488;BME280;67885;49.758;9.582;2023-12-28T08:36:11;99362.00;;;13.13;58.68
78488;BME280;67885;49.758;9.582;2023-12-28T08:38:38;99354.41;;;13.09;58.01
78488;BME280;67885;49.758;9.582;2023-12-28T08:41:06;99370.00;;;13.13;58.00
78488;BME280;67885;49.758;9.582;2023-12-28T08:43:35;99362.97;;;13.12;58.05
78488;BME280;67885;49.758;9.582;2023-12-28T08:46:01;99377.81;;;13.15;58.46
78488;BME280;67885;49.758;9.582;2023-12-28T08:48:28;99374.88;;;13.18;58.40
78488;BME280;67885;49.758;9.582;2023-12-28T08:50:54;99380.06;;;13.20;57.98
78488;BME280;67885;49.758;9.582;2023-12-28T08:53:21;99383.44;;;13.22;58.35
78488;BME280;67885;49.758;9.582;2023-12-28T08:55:47;99382.34;;;13.24;57.86
78488;BME280;67885;49.758;9.582;2023-12-28T08:58:16;99390.31;;;13.24;57.80
78488;BME280;67885;49.758;9.582;2023-12-28T09:00:42;99367.03;;;13.07;58.63
78488;BME280;67885;49.758;9.582;2023-12-28T09:03:10;99386.09;;;13.22;57.77
78488;BME280;67885;49.758;9.582;2023-12-28T09:05:37;99374.19;;;13.16;58.47
78488;BME280;67885;49.758;9.582;2023-12-28T09:08:04;99377.16;;;13.23;58.14
78488;BME280;67885;49.758;9.582;2023-12-28T09:10:31;99384.28;;;13.22;58.51
78488;BME280;67885;49.758;9.582;2023-12-28T09:12:58;99378.00;;;13.23;57.96
78488;BME280;67885;49.758;9.582;2023-12-28T09:15:26;99363.00;;;13.22;57.52
78488;BME280;67885;49.758;9.582;2023-12-28T09:17:52;99375.78;;;13.28;58.50
78488;BME280;67885;49.758;9.582;2023-12-28T09:20:19;99378.16;;;13.31;58.11
78488;BME280;67885;49.758;9.582;2023-12-28T09:22:45;99365.97;;;13.29;57.34
78488;BME280;67885;49.758;9.582;2023-12-28T09:25:13;99359.25;;;13.35;57.95
78488;BME280;67885;49.758;9.582;2023-12-28T09:27:39;99356.88;;;13.31;57.24
78488;BME280;67885;49.758;9.582;2023-12-28T09:30:07;99367.97;;;13.37;57.17
78488;BME280;67885;49.758;9.582;2023-12-28T09:32:35;99374.41;;;13.44;57.26
78488;BME280;67885;49.758;9.582;2023-12-28T09:35:03;99353.72;;;13.38;57.32
78488;BME280;67885;49.758;9.582;2023-12-28T09:37:30;99368.00;;;13.46;57.15
78488;BME280;67885;49.758;9.582;2023-12-28T09:39:56;99379.34;;;13.48;56.67
78488;BME280;67885;49.758;9.582;2023-12-28T09:42:25;99377.38;;;13.51;56.59
78488;BME280;67885;49.758;9.582;2023-12-28T09:44:53;99375.69;;;13.49;56.71
78488;BME280;67885;49.758;9.582;2023-12-28T09:47:19;99368.44;;;13.52;56.96
78488;BME280;67885;49.758;9.582;2023-12-28T09:49:48;99369.00;;;13.55;57.61
78488;BME280;67885;49.758;9.582;2023-12-28T09:52:15;99355.94;;;13.52;56.56
78488;BME280;67885;49.758;9.582;2023-12-28T09:54:41;99363.41;;;13.58;56.65
78488;BME280;67885;49.758;9.582;2023-12-28T09:57:09;99371.81;;;13.63;57.12
78488;BME280;67885;49.758;9.582;2023-12-28T09:59:38;99339.69;;;13.45;56.07
78488;BME280;67885;49.758;9.582;2023-12-28T10:02:06;99369.53;;;13.69;56.22
78488;BME280;67885;49.758;9.582;2023-12-28T10:04:33;99349.81;;;13.61;55.70
78488;BME280;67885;49.758;9.582;2023-12-28T10:07:03;99362.44;;;13.69;56.26
78488;BME280;67885;49.758;9.582;2023-12-28T10:09:29;99371.25;;;13.70;55.48
78488;BME280;67885;49.758;9.582;2023-12-28T10:11:56;99362.56;;;13.68;55.93
78488;BME280;67885;49.758;9.582;2023-12-28T10:14:23;99362.56;;;13.68;55.99
78488;BME280;67885;49.758;9.582;2023-12-28T10:16:49;99355.84;;;13.63;55.83
78488;BME280;67885;49.758;9.582;2023-12-28T10:19:21;99362.56;;;13.68;55.73
78488;BME280;67885;49.758;9.582;2023-12-28T10:21:48;99366.34;;;13.65;55.78
78488;BME280;67885;49.758;9.582;2023-12-28T10:24:16;99369.84;;;13.65;55.91
78488;BME280;67885;49.758;9.582;2023-12-28T10:26:43;99362.81;;;13.64;55.62
78488;BME280;67885;49.758;9.582;2023-12-28T10:29:10;99336.22;;;13.45;56.01
78488;BME280;67885;49.758;9.582;2023-12-28T10:31:37;99356.38;;;13.57;55.68
78488;BME280;67885;49.758;9.582;2023-12-28T10:34:04;99358.06;;;13.58;56.05
78488;BME280;67885;49.758;9.582;2023-12-28T10:36:33;99361.84;;;13.65;55.95
78488;BME280;67885;49.758;9.582;2023-12-28T10:39:04;99373.34;;;13.76;54.75
78488;BME280;67885;49.758;9.582;2023-12-28T10:41:34;99362.28;;;13.71;54.75
78488;BME280;67885;49.758;9.582;2023-12-28T10:44:05;99331.03;;;13.53;55.04
78488;BME280;67885;49.758;9.582;2023-12-28T10:46:39;99373.22;;;13.77;54.72
78488;BME280;67885;49.758;9.582;2023-12-28T10:49:10;99366.78;;;13.80;55.17
78488;BME280;67885;49.758;9.582;2023-12-28T10:51:41;99373.06;;;13.89;54.35
78488;BME280;67885;49.758;9.582;2023-12-28T10:54:23;99327.69;;;13.71;54.95
78488;BME280;67885;49.758;9.582;2023-12-28T10:57:01;99330.47;;;13.79;54.63
78488;BME280;67885;49.758;9.582;2023-12-28T10:59:44;99371.09;;;14.10;54.41
78488;BME280;67885;49.758;9.582;2023-12-28T11:02:16;99355.13;;;14.10;54.75
78488;BME280;67885;49.758;9.582;2023-12-28T11:04:49;99360.00;;;14.25;53.83
78488;BME280;67885;49.758;9.582;2023-12-28T11:07:19;99363.25;;;14.28;53.52
78488;BME280;67885;49.758;9.582;2023-12-28T11:09:48;99362.81;;;14.33;53.17
78488;BME280;67885;49.758;9.582;2023-12-28T11:12:16;99344.31;;;14.31;53.38
78488;BME280;67885;49.758;9.582;2023-12-28T11:14:45;99346.53;;;14.36;52.40
78488;BME280;67885;49.758;9.582;2023-12-28T11:17:15;99347.50;;;14.35;53.27
78488;BME280;67885;49.758;9.582;2023-12-28T11:19:44;99332.09;;;14.29;52.69
78488;BME280;67885;49.758;9.582;2023-12-28T11:22:11;99337.00;;;14.33;52.36
78488;BME280;67885;49.758;9.582;2023-12-28T11:24:39;99307.31;;;14.09;52.70
78488;BME280;67885;49.758;9.582;2023-12-28T11:27:06;99339.53;;;14.25;52.72
78488;BME280;67885;49.758;9.582;2023-12-28T11:29:35;99346.13;;;14.21;52.69
78488;BME280;67885;49.758;9.582;2023-12-28T11:32:02;99342.22;;;14.15;52.54
78488;BME280;67885;49.758;9.582;2023-12-28T11:34:30;99337.03;;;14.14;52.79
78488;BME280;67885;49.758;9.582;2023-12-28T11:37:03;99331.03;;;14.02;52.84
78488;BME280;67885;49.758;9.582;2023-12-28T11:39:32;99342.13;;;13.97;53.58
78488;BME280;67885;49.758;9.582;2023-12-28T11:42:00;99311.56;;;13.72;52.91
78488;BME280;67885;49.758;9.582;2023-12-28T11:44:28;99327.53;;;13.92;53.00
78488;BME280;67885;49.758;9.582;2023-12-28T11:46:56;99335.38;;;14.03;53.90
78488;BME280;67885;49.758;9.582;2023-12-28T11:49:25;99322.34;;;14.00;53.41
78488;BME280;67885;49.758;9.582;2023-12-28T11:51:55;99331.00;;;14.12;53.50
78488;BME280;67885;49.758;9.582;2023-12-28T11:54:24;99296.28;;;13.94;53.21
78488;BME280;67885;49.758;9.582;2023-12-28T11:56:51;99326.38;;;14.14;52.95
78488;BME280;67885;49.758;9.582;2023-12-28T11:59:17;99309.16;;;14.08;53.22
78488;BME280;67885;49.758;9.582;2023-12-28T12:01:49;99275.81;;;13.85;52.77
78488;BME280;67885;49.758;9.582;2023-12-28T12:04:17;99305.63;;;14.08;53.56
78488;BME280;67885;49.758;9.582;2023-12-28T12:06:44;99281.41;;;14.01;53.07
78488;BME280;67885;49.758;9.582;2023-12-28T12:09:11;99308.56;;;14.14;52.85
78488;BME280;67885;49.758;9.582;2023-12-28T12:11:38;99268.25;;;13.90;52.59
78488;BME280;67885;49.758;9.582;2023-12-28T12:14:08;99311.09;;;14.16;53.08
78488;BME280;67885;49.758;9.582;2023-12-28T12:16:35;99351.75;;;14.18;52.72
78488;BME280;67885;49.758;9.582;2023-12-28T12:19:02;99309.44;;;14.15;52.75
78488;BME280;67885;49.758;9.582;2023-12-28T12:21:30;99320.09;;;14.15;52.79
78488;BME280;67885;49.758;9.582;2023-12-28T12:23:57;99315.72;;;14.14;52.32
78488;BME280;67885;49.758;9.582;2023-12-28T12:26:23;99307.47;;;14.07;53.30
78488;BME280;67885;49.758;9.582;2023-12-28T12:28:51;99306.66;;;14.07;52.72
78488;BME280;67885;49.758;9.582;2023-12-28T12:31:18;99300.16;;;14.09;53.15
78488;BME280;67885;49.758;9.582;2023-12-28T12:33:46;99281.41;;;14.01;52.51
78488;BME280;67885;49.758;9.582;2023-12-28T12:36:13;99297.38;;;14.11;52.65
78488;BME280;67885;49.758;9.582;2023-12-28T12:38:41;99272.16;;;14.05;53.29
78488;BME280;67885;49.758;9.582;2023-12-28T12:41:10;99266.56;;;14.08;52.67
78488;BME280;67885;49.758;9.582;2023-12-28T12:43:37;99270.47;;;14.14;52.76
78488;BME280;67885;49.758;9.582;2023-12-28T12:46:04;99288.50;;;14.30;52.23
78488;BME280;67885;49.758;9.582;2023-12-28T12:48:31;99287.38;;;14.32;52.79
78488;BME280;67885;49.758;9.582;2023-12-28T12:50:57;99282.44;;;14.38;52.38
78488;BME280;67885;49.758;9.582;2023-12-28T12:53:24;99283.81;;;14.42;52.44
78488;BME280;67885;49.758;9.582;2023-12-28T12:55:55;99231.50;;;14.13;51.30
78488;BME280;67885;49.758;9.582;2023-12-28T12:58:22;99281.56;;;14.47;51.55
78488;BME280;67885;49.758;9.582;2023-12-28T13:00:49;99266.19;;;14.41;51.68